CheckWX is a tool to help pilots better visualize weather data.  It is not intended as a substitute for an official pre-flight weather briefing.

04:18:58 UTC

KBJJ METAR
Wayne County Airport
Wooster, Ohio, USA
Current

23 mins ago

KBJJ 270356Z AUTO 00000KT 10SM CLR 21/19 A3016 RMK AO2 SLP204 T02110194
Observed
Jun-27 @ 03:56 UTC
Visibility
10 SM
Flight Rules
VFR
Cloud Levels
  • Clear skies
Temperature
21°C / 70°F
Dewpoint
19°C / 66°F
Humidity
88%
Altimeter
30.16" Hg
Pressure
1021.32 hPa
Previous

1 hour ago

KBJJ 270256Z AUTO 00000KT 10SM CLR 22/19 A3014 RMK AO2 SLP200 T02170194 53013
Observed
Jun-27 @ 02:56 UTC
Visibility
10 SM
Flight Rules
VFR
Cloud Levels
  • Clear skies
Temperature
22°C / 72°F
Dewpoint
19°C / 66°F
Humidity
83%
Altimeter
30.14" Hg
Pressure
1020.62 hPa
Previous

2 hours ago

KBJJ 270156Z AUTO 00000KT 10SM CLR 23/21 A3013 RMK AO2 SLP193 T02330206
Observed
Jun-27 @ 01:56 UTC
Visibility
10 SM
Flight Rules
VFR
Cloud Levels
  • Clear skies
Temperature
23°C / 73°F
Dewpoint
21°C / 70°F
Humidity
89%
Altimeter
30.13" Hg
Pressure
1020.32 hPa